sensor_id;sensor_type;location;lat;lon;timestamp;temperature;humidity
74376;HTU21D;62812;55.188;61.302;2023-12-20T00:02:26;-4.99;74.67
74376;HTU21D;62812;55.188;61.302;2023-12-20T00:04:55;-5.04;75.13
74376;HTU21D;62812;55.188;61.302;2023-12-20T00:07:21;-5.13;75.85
74376;HTU21D;62812;55.188;61.302;2023-12-20T00:09:48;-5.18;76.62
74376;HTU21D;62812;55.188;61.302;2023-12-20T00:12:15;-5.22;76.64
74376;HTU21D;62812;55.188;61.302;2023-12-20T00:17:19;-5.23;76.71
74376;HTU21D;62812;55.188;61.302;2023-12-20T00:19:48;-5.23;77.40
74376;HTU21D;62812;55.188;61.302;2023-12-20T00:22:17;-5.20;76.82
74376;HTU21D;62812;55.188;61.302;2023-12-20T00:24:44;-5.17;76.71
74376;HTU21D;62812;55.188;61.302;2023-12-20T00:27:11;-5.22;76.66
74376;HTU21D;62812;55.188;61.302;2023-12-20T00:29:38;-5.20;76.31
74376;HTU21D;62812;55.188;61.302;2023-12-20T00:32:06;-5.24;76.75
74376;HTU21D;62812;55.188;61.302;2023-12-20T00:34:32;-5.29;76.44
74376;HTU21D;62812;55.188;61.302;2023-12-20T00:36:59;-5.41;75.86
74376;HTU21D;62812;55.188;61.302;2023-12-20T00:39:27;-5.58;74.67
74376;HTU21D;62812;55.188;61.302;2023-12-20T00:41:54;-5.69;75.45
74376;HTU21D;62812;55.188;61.302;2023-12-20T00:44:21;-5.73;76.10
74376;HTU21D;62812;55.188;61.302;2023-12-20T00:46:49;-5.74;76.98
74376;HTU21D;62812;55.188;61.302;2023-12-20T00:49:15;-5.74;76.76
74376;HTU21D;62812;55.188;61.302;2023-12-20T00:51:43;-5.73;77.02
74376;HTU21D;62812;55.188;61.302;2023-12-20T00:54:10;-5.72;77.20
74376;HTU21D;62812;55.188;61.302;2023-12-20T00:56:39;-5.73;76.54
74376;HTU21D;62812;55.188;61.302;2023-12-20T00:59:06;-5.77;76.31
74376;HTU21D;62812;55.188;61.302;2023-12-20T01:01:34;-5.77;76.40
74376;HTU21D;62812;55.188;61.302;2023-12-20T01:04:26;-5.74;76.82
74376;HTU21D;62812;55.188;61.302;2023-12-20T01:06:53;-5.71;76.14
74376;HTU21D;62812;55.188;61.302;2023-12-20T01:09:20;-5.73;75.33
74376;HTU21D;62812;55.188;61.302;2023-12-20T01:11:51;-5.79;75.22
74376;HTU21D;62812;55.188;61.302;2023-12-20T01:14:17;-5.86;75.39
74376;HTU21D;62812;55.188;61.302;2023-12-20T01:16:44;-5.91;74.91
74376;HTU21D;62812;55.188;61.302;2023-12-20T01:19:10;-5.98;74.64
74376;HTU21D;62812;55.188;61.302;2023-12-20T01:21:37;-6.04;74.92
74376;HTU21D;62812;55.188;61.302;2023-12-20T01:24:03;-6.17;75.01
74376;HTU21D;62812;55.188;61.302;2023-12-20T01:26:30;-6.22;76.12
74376;HTU21D;62812;55.188;61.302;2023-12-20T01:28:59;-6.28;75.92
74376;HTU21D;62812;55.188;61.302;2023-12-20T01:31:26;-6.33;76.21
74376;HTU21D;62812;55.188;61.302;2023-12-20T01:33:59;-6.31;76.87
74376;HTU21D;62812;55.188;61.302;2023-12-20T01:36:26;-6.32;76.43
74376;HTU21D;62812;55.188;61.302;2023-12-20T01:38:54;-6.28;76.47
74376;HTU21D;62812;55.188;61.302;2023-12-20T01:41:21;-6.26;76.70
74376;HTU21D;62812;55.188;61.302;2023-12-20T01:43:48;-6.24;76.15
74376;HTU21D;62812;55.188;61.302;2023-12-20T01:46:17;-6.20;76.26
74376;HTU21D;62812;55.188;61.302;2023-12-20T01:48:44;-6.15;76.20
74376;HTU21D;62812;55.188;61.302;2023-12-20T01:51:12;-6.11;76.43
74376;HTU21D;62812;55.188;61.302;2023-12-20T01:53:40;-6.07;76.32
74376;HTU21D;62812;55.188;61.302;2023-12-20T01:56:08;-6.04;76.21
74376;HTU21D;62812;55.188;61.302;2023-12-20T01:58:36;-5.99;76.19
74376;HTU21D;62812;55.188;61.302;2023-12-20T02:01:08;-5.93;76.15
74376;HTU21D;62812;55.188;61.302;2023-12-20T02:03:36;-5.90;75.43
74376;HTU21D;62812;55.188;61.302;2023-12-20T02:06:04;-5.86;75.67
74376;HTU21D;62812;55.188;61.302;2023-12-20T02:08:32;-5.86;75.60
74376;HTU21D;62812;55.188;61.302;2023-12-20T02:10:59;-5.81;75.89
74376;HTU21D;62812;55.188;61.302;2023-12-20T02:13:32;-5.76;75.98
74376;HTU21D;62812;55.188;61.302;2023-12-20T02:15:59;-5.73;75.80
74376;HTU21D;62812;55.188;61.302;2023-12-20T02:18:26;-5.72;75.17
74376;HTU21D;62812;55.188;61.302;2023-12-20T02:20:57;-5.72;75.34
74376;HTU21D;62812;55.188;61.302;2023-12-20T02:23:26;-5.74;74.41
74376;HTU21D;62812;55.188;61.302;2023-12-20T02:25:53;-5.75;75.60
74376;HTU21D;62812;55.188;61.302;2023-12-20T02:28:19;-5.74;75.21
74376;HTU21D;62812;55.188;61.302;2023-12-20T02:30:48;-5.78;74.86
74376;HTU21D;62812;55.188;61.302;2023-12-20T02:33:20;-5.79;75.43
74376;HTU21D;62812;55.188;61.302;2023-12-20T02:35:48;-5.77;75.41
74376;HTU21D;62812;55.188;61.302;2023-12-20T02:38:17;-5.73;75.70
74376;HTU21D;62812;55.188;61.302;2023-12-20T02:40:47;-5.73;75.10
74376;HTU21D;62812;55.188;61.302;2023-12-20T02:43:16;-5.74;75.40
74376;HTU21D;62812;55.188;61.302;2023-12-20T02:45:49;-5.68;76.36
74376;HTU21D;62812;55.188;61.302;2023-12-20T02:48:23;-5.65;75.47
74376;HTU21D;62812;55.188;61.302;2023-12-20T02:50:54;-5.58;75.52
74376;HTU21D;62812;55.188;61.302;2023-12-20T02:53:24;-5.55;75.34
74376;HTU21D;62812;55.188;61.302;2023-12-20T02:55:58;-5.52;75.20
74376;HTU21D;62812;55.188;61.302;2023-12-20T02:58:25;-5.47;74.95
74376;HTU21D;62812;55.188;61.302;2023-12-20T03:00:52;-5.38;75.26
74376;HTU21D;62812;55.188;61.302;2023-12-20T03:03:19;-5.32;74.66
74376;HTU21D;62812;55.188;61.302;2023-12-20T03:05:46;-5.23;74.61
74376;HTU21D;62812;55.188;61.302;2023-12-20T03:08:14;-5.13;74.00
74376;HTU21D;62812;55.188;61.302;2023-12-20T03:10:44;-5.07;73.99
74376;HTU21D;62812;55.188;61.302;2023-12-20T03:13:20;-4.95;73.78
74376;HTU21D;62812;55.188;61.302;2023-12-20T03:15:46;-4.83;73.51
74376;HTU21D;62812;55.188;61.302;2023-12-20T03:18:13;-4.73;72.96
74376;HTU21D;62812;55.188;61.302;2023-12-20T03:20:40;-4.67;72.94
74376;HTU21D;62812;55.188;61.302;2023-12-20T03:23:08;-4.64;72.66
74376;HTU21D;62812;55.188;61.302;2023-12-20T03:25:37;-4.58;72.61
74376;HTU21D;62812;55.188;61.302;2023-12-20T03:28:07;-4.56;72.51
74376;HTU21D;62812;55.188;61.302;2023-12-20T03:30:44;-4.51;71.97
74376;HTU21D;62812;55.188;61.302;2023-12-20T03:33:11;-4.49;72.00
74376;HTU21D;62812;55.188;61.302;2023-12-20T03:35:40;-4.50;71.93
74376;HTU21D;62812;55.188;61.302;2023-12-20T03:38:08;-4.46;71.87
74376;HTU21D;62812;55.188;61.302;2023-12-20T03:40:35;-4.45;72.13
74376;HTU21D;62812;55.188;61.302;2023-12-20T03:43:08;-4.38;71.91
74376;HTU21D;62812;55.188;61.302;2023-12-20T03:45:35;-4.22;71.84
74376;HTU21D;62812;55.188;61.302;2023-12-20T03:48:05;-4.14;71.29
74376;HTU21D;62812;55.188;61.302;2023-12-20T03:50:32;-4.08;71.20
74376;HTU21D;62812;55.188;61.302;2023-12-20T03:52:58;-4.07;70.75
74376;HTU21D;62812;55.188;61.302;2023-12-20T03:55:25;-3.98;70.88
74376;HTU21D;62812;55.188;61.302;2023-12-20T03:57:54;-3.95;70.52
74376;HTU21D;62812;55.188;61.302;2023-12-20T04:00:25;-3.91;70.46
74376;HTU21D;62812;55.188;61.302;2023-12-20T04:02:52;-3.90;70.39
74376;HTU21D;62812;55.188;61.302;2023-12-20T04:05:26;-3.81;70.69
74376;HTU21D;62812;55.188;61.302;2023-12-20T04:07:55;-3.75;70.43
74376;HTU21D;62812;55.188;61.302;2023-12-20T04:10:22;-3.67;70.42
74376;HTU21D;62812;55.188;61.302;2023-12-20T04:12:53;-3.56;70.14
74376;HTU21D;62812;55.188;61.302;2023-12-20T04:15:22;-3.37;69.51
74376;HTU21D;62812;55.188;61.302;2023-12-20T04:17:49;-3.28;69.55
74376;HTU21D;62812;55.188;61.302;2023-12-20T04:20:15;-3.18;69.13
74376;HTU21D;62812;55.188;61.302;2023-12-20T04:22:44;-3.07;68.78
74376;HTU21D;62812;55.188;61.302;2023-12-20T04:25:11;-3.04;68.48
74376;HTU21D;62812;55.188;61.302;2023-12-20T04:27:39;-2.94;68.34
74376;HTU21D;62812;55.188;61.302;2023-12-20T04:30:07;-2.90;68.23
74376;HTU21D;62812;55.188;61.302;2023-12-20T04:32:40;-2.91;68.18
74376;HTU21D;62812;55.188;61.302;2023-12-20T04:35:07;-2.86;68.39
74376;HTU21D;62812;55.188;61.302;2023-12-20T04:37:35;-2.81;68.01
74376;HTU21D;62812;55.188;61.302;2023-12-20T04:40:05;-2.73;67.81
74376;HTU21D;62812;55.188;61.302;2023-12-20T04:42:32;-2.65;67.44
74376;HTU21D;62812;55.188;61.302;2023-12-20T04:44:59;-2.61;67.55
74376;HTU21D;62812;55.188;61.302;2023-12-20T04:47:26;-2.54;67.00
74376;HTU21D;62812;55.188;61.302;2023-12-20T04:49:53;-2.47;67.20
74376;HTU21D;62812;55.188;61.302;2023-12-20T04:52:20;-2.43;66.91
74376;HTU21D;62812;55.188;61.302;2023-12-20T04:54:47;-2.42;66.66
74376;HTU21D;62812;55.188;61.302;2023-12-20T04:57:15;-2.52;67.15
74376;HTU21D;62812;55.188;61.302;2023-12-20T04:59:42;-2.47;67.14
74376;HTU21D;62812;55.188;61.302;2023-12-20T05:02:09;-2.37;66.81
74376;HTU21D;62812;55.188;61.302;2023-12-20T05:04:36;-2.43;66.86
74376;HTU21D;62812;55.188;61.302;2023-12-20T05:07:02;-2.46;66.98
74376;HTU21D;62812;55.188;61.302;2023-12-20T05:09:31;-2.41;66.91
74376;HTU21D;62812;55.188;61.302;2023-12-20T05:11:58;-2.33;66.87
74376;HTU21D;62812;55.188;61.302;2023-12-20T05:14:30;-2.17;66.69
74376;HTU21D;62812;55.188;61.302;2023-12-20T05:16:57;-2.13;66.50
74376;HTU21D;62812;55.188;61.302;2023-12-20T05:19:25;-2.09;66.45
74376;HTU21D;62812;55.188;61.302;2023-12-20T05:21:53;-1.91;66.07
74376;HTU21D;62812;55.188;61.302;2023-12-20T05:24:22;-1.84;65.56
74376;HTU21D;62812;55.188;61.302;2023-12-20T05:26:49;-1.74;65.23
74376;HTU21D;62812;55.188;61.302;2023-12-20T05:29:17;-1.80;65.18
74376;HTU21D;62812;55.188;61.302;2023-12-20T05:31:47;-1.76;65.50
74376;HTU21D;62812;55.188;61.302;2023-12-20T05:34:14;-1.74;65.69
74376;HTU21D;62812;55.188;61.302;2023-12-20T05:36:40;-1.67;65.12
74376;HTU21D;62812;55.188;61.302;2023-12-20T05:39:08;-1.61;64.89
74376;HTU21D;62812;55.188;61.302;2023-12-20T05:41:37;-1.57;64.88
74376;HTU21D;62812;55.188;61.302;2023-12-20T05:44:12;-1.55;64.96
74376;HTU21D;62812;55.188;61.302;2023-12-20T05:46:41;-1.56;64.82
74376;HTU21D;62812;55.188;61.302;2023-12-20T05:49:12;-1.48;64.78
74376;HTU21D;62812;55.188;61.302;2023-12-20T05:51:39;-1.46;64.39
74376;HTU21D;62812;55.188;61.302;2023-12-20T05:54:09;-1.57;65.01
74376;HTU21D;62812;55.188;61.302;2023-12-20T05:56:38;-1.54;65.08
74376;HTU21D;62812;55.188;61.302;2023-12-20T05:59:08;-1.56;65.30
74376;HTU21D;62812;55.188;61.302;2023-12-20T06:01:36;-1.46;65.18
74376;HTU21D;62812;55.188;61.302;2023-12-20T06:04:03;-1.30;64.79
74376;HTU21D;62812;55.188;61.302;2023-12-20T06:09:56;-1.21;64.54
74376;HTU21D;62812;55.188;61.302;2023-12-20T06:13:00;-1.24;64.36
74376;HTU21D;62812;55.188;61.302;2023-12-20T06:15:41;-1.21;64.18
74376;HTU21D;62812;55.188;61.302;2023-12-20T06:18:58;-1.13;64.43
74376;HTU21D;62812;55.188;61.302;2023-12-20T06:22:07;-1.17;64.49
74376;HTU21D;62812;55.188;61.302;2023-12-20T06:25:26;-1.09;64.75
74376;HTU21D;62812;55.188;61.302;2023-12-20T06:28:07;-0.93;64.24
74376;HTU21D;62812;55.188;61.302;2023-12-20T06:30:36;-0.76;63.81
74376;HTU21D;62812;55.188;61.302;2023-12-20T06:33:05;-0.69;63.40
74376;HTU21D;62812;55.188;61.302;2023-12-20T06:35:34;-0.71;63.16
74376;HTU21D;62812;55.188;61.302;2023-12-20T06:38:02;-0.66;63.35
74376;HTU21D;62812;55.188;61.302;2023-12-20T06:40:34;-0.67;63.34
74376;HTU21D;62812;55.188;61.302;2023-12-20T06:43:32;-0.73;63.64
74376;HTU21D;62812;55.188;61.302;2023-12-20T06:46:02;-0.87;64.13
74376;HTU21D;62812;55.188;61.302;2023-12-20T06:48:30;-1.08;64.90
74376;HTU21D;62812;55.188;61.302;2023-12-20T06:50:59;-1.12;65.50
74376;HTU21D;62812;55.188;61.302;2023-12-20T06:53:26;-1.17;66.27
74376;HTU21D;62812;55.188;61.302;2023-12-20T06:55:55;-1.04;66.65
74376;HTU21D;62812;55.188;61.302;2023-12-20T06:58:23;-1.00;67.35
74376;HTU21D;62812;55.188;61.302;2023-12-20T07:00:53;-0.95;67.93
74376;HTU21D;62812;55.188;61.302;2023-12-20T07:03:21;-0.87;66.90
74376;HTU21D;62812;55.188;61.302;2023-12-20T07:05:49;-0.71;66.26
74376;HTU21D;62812;55.188;61.302;2023-12-20T07:08:20;-0.68;67.08
74376;HTU21D;62812;55.188;61.302;2023-12-20T07:10:49;-0.64;67.43
74376;HTU21D;62812;55.188;61.302;2023-12-20T07:13:19;-0.76;68.42
74376;HTU21D;62812;55.188;61.302;2023-12-20T07:15:46;-0.85;68.20
74376;HTU21D;62812;55.188;61.302;2023-12-20T07:18:14;-0.87;68.50
74376;HTU21D;62812;55.188;61.302;2023-12-20T07:20:44;-0.84;69.55
74376;HTU21D;62812;55.188;61.302;2023-12-20T07:23:12;-0.84;70.10
74376;HTU21D;62812;55.188;61.302;2023-12-20T07:25:58;-1.01;71.51
74376;HTU21D;62812;55.188;61.302;2023-12-20T07:28:29;-0.94;69.29
74376;HTU21D;62812;55.188;61.302;2023-12-20T07:30:56;-0.83;69.16
74376;HTU21D;62812;55.188;61.302;2023-12-20T07:33:23;-0.82;70.31
74376;HTU21D;62812;55.188;61.302;2023-12-20T07:36:20;-0.76;69.85
74376;HTU21D;62812;55.188;61.302;2023-12-20T07:39:26;-0.86;70.34
74376;HTU21D;62812;55.188;61.302;2023-12-20T07:41:53;-0.91;69.48
74376;HTU21D;62812;55.188;61.302;2023-12-20T07:44:25;-0.91;70.66
74376;HTU21D;62812;55.188;61.302;2023-12-20T07:46:53;-0.84;69.13
74376;HTU21D;62812;55.188;61.302;2023-12-20T07:49:25;-0.79;70.26
74376;HTU21D;62812;55.188;61.302;2023-12-20T07:51:53;-0.74;71.00
74376;HTU21D;62812;55.188;61.302;2023-12-20T07:54:20;-0.76;70.71
74376;HTU21D;62812;55.188;61.302;2023-12-20T07:56:49;-0.82;72.17
74376;HTU21D;62812;55.188;61.302;2023-12-20T07:59:27;-0.86;72.19
74376;HTU21D;62812;55.188;61.302;2023-12-20T08:01:53;-0.81;71.99
74376;HTU21D;62812;55.188;61.302;2023-12-20T08:04:22;-0.86;73.27
74376;HTU21D;62812;55.188;61.302;2023-12-20T08:06:54;-0.98;74.12
74376;HTU21D;62812;55.188;61.302;2023-12-20T08:09:23;-1.09;73.97
74376;HTU21D;62812;55.188;61.302;2023-12-20T08:11:51;-1.15;74.22
74376;HTU21D;62812;55.188;61.302;2023-12-20T08:14:19;-1.08;72.36
74376;HTU21D;62812;55.188;61.302;2023-12-20T08:16:48;-0.98;73.09
74376;HTU21D;62812;55.188;61.302;2023-12-20T08:19:39;-0.94;74.86
74376;HTU21D;62812;55.188;61.302;2023-12-20T08:22:11;-0.90;74.35
74376;HTU21D;62812;55.188;61.302;2023-12-20T08:24:38;-0.84;73.04
74376;HTU21D;62812;55.188;61.302;2023-12-20T08:27:05;-0.81;74.79
74376;HTU21D;62812;55.188;61.302;2023-12-20T08:29:34;-0.79;73.37
74376;HTU21D;62812;55.188;61.302;2023-12-20T08:32:50;-0.73;72.80
74376;HTU21D;62812;55.188;61.302;2023-12-20T08:35:26;-0.72;74.59
74376;HTU21D;62812;55.188;61.302;2023-12-20T08:37:57;-0.65;72.29
74376;HTU21D;62812;55.188;61.302;2023-12-20T08:40:24;-0.55;73.15
74376;HTU21D;62812;55.188;61.302;2023-12-20T08:42:51;-0.64;73.86
74376;HTU21D;62812;55.188;61.302;2023-12-20T08:45:19;-0.56;72.23
74376;HTU21D;62812;55.188;61.302;2023-12-20T08:51:04;-0.75;72.65
74376;HTU21D;62812;55.188;61.302;2023-12-20T08:53:35;-0.64;74.10
74376;HTU21D;62812;55.188;61.302;2023-12-20T08:56:02;-0.74;74.38
74376;HTU21D;62812;55.188;61.302;2023-12-20T08:58:30;-0.77;75.74
74376;HTU21D;62812;55.188;61.302;2023-12-20T09:00:57;-0.81;76.06
74376;HTU21D;62812;55.188;61.302;2023-12-20T09:03:27;-0.73;75.31
74376;HTU21D;62812;55.188;61.302;2023-12-20T09:05:54;-0.75;75.44
74376;HTU21D;62812;55.188;61.302;2023-12-20T09:08:23;-0.80;76.04
74376;HTU21D;62812;55.188;61.302;2023-12-20T09:10:55;-0.90;76.99
74376;HTU21D;62812;55.188;61.302;2023-12-20T09:13:32;-0.98;76.98
74376;HTU21D;62812;55.188;61.302;2023-12-20T09:16:00;-0.97;76.97
74376;HTU21D;62812;55.188;61.302;2023-12-20T09:18:28;-0.91;75.12
74376;HTU21D;62812;55.188;61.302;2023-12-20T09:20:59;-0.85;74.51
74376;HTU21D;62812;55.188;61.302;2023-12-20T09:23:58;-0.74;75.81
74376;HTU21D;62812;55.188;61.302;2023-12-20T09:26:29;-0.58;73.46
74376;HTU21D;62812;55.188;61.302;2023-12-20T09:28:55;-0.58;73.49
74376;HTU21D;62812;55.188;61.302;2023-12-20T09:31:22;-0.68;74.52
74376;HTU21D;62812;55.188;61.302;2023-12-20T09:33:48;-0.67;74.93
74376;HTU21D;62812;55.188;61.302;2023-12-20T09:36:15;-0.71;75.38
74376;HTU21D;62812;55.188;61.302;2023-12-20T09:38:41;-0.70;75.39
74376;HTU21D;62812;55.188;61.302;2023-12-20T09:41:11;-0.74;74.25
74376;HTU21D;62812;55.188;61.302;2023-12-20T09:43:38;-0.81;75.59
74376;HTU21D;62812;55.188;61.302;2023-12-20T09:46:06;-0.80;74.84
74376;HTU21D;62812;55.188;61.302;2023-12-20T09:48:36;-0.72;75.14
74376;HTU21D;62812;55.188;61.302;2023-12-20T09:51:04;-0.66;74.22
74376;HTU21D;62812;55.188;61.302;2023-12-20T09:53:58;-0.58;73.87
74376;HTU21D;62812;55.188;61.302;2023-12-20T09:56:27;-0.59;74.18
74376;HTU21D;62812;55.188;61.302;2023-12-20T09:58:56;-0.56;73.55
74376;HTU21D;62812;55.188;61.302;2023-12-20T10:01:24;-0.59;73.73
74376;HTU21D;62812;55.188;61.302;2023-12-20T10:03:54;-0.51;72.93
74376;HTU21D;62812;55.188;61.302;2023-12-20T10:06:24;-0.53;72.49
74376;HTU21D;62812;55.188;61.302;2023-12-20T10:08:51;-0.41;72.47
74376;HTU21D;62812;55.188;61.302;2023-12-20T10:11:21;-0.40;72.48
74376;HTU21D;62812;55.188;61.302;2023-12-20T10:13:59;-0.35;72.46
74376;HTU21D;62812;55.188;61.302;2023-12-20T10:16:27;-0.41;72.49
74376;HTU21D;62812;55.188;61.302;2023-12-20T10:18:55;-0.45;72.35
74376;HTU21D;62812;55.188;61.302;2023-12-20T10:21:26;-0.49;72.68
74376;HTU21D;62812;55.188;61.302;2023-12-20T10:24:36;-0.38;71.25
74376;HTU21D;62812;55.188;61.302;2023-12-20T10:27:09;-0.32;71.61
74376;HTU21D;62812;55.188;61.302;2023-12-20T10:30:08;-0.30;71.29
74376;HTU21D;62812;55.188;61.302;2023-12-20T10:32:38;-0.23;70.88
74376;HTU21D;62812;55.188;61.302;2023-12-20T10:35:06;-0.19;70.64
74376;HTU21D;62812;55.188;61.302;2023-12-20T10:37:35;-0.22;70.55
74376;HTU21D;62812;55.188;61.302;2023-12-20T10:40:04;-0.31;70.87
74376;HTU21D;62812;55.188;61.302;2023-12-20T10:42:38;-0.26;70.62
74376;HTU21D;62812;55.188;61.302;2023-12-20T10:45:16;-0.22;70.35
74376;HTU21D;62812;55.188;61.302;2023-12-20T10:47:50;-0.19;70.44
74376;HTU21D;62812;55.188;61.302;2023-12-20T10:50:31;-0.31;70.71
74376;HTU21D;62812;55.188;61.302;2023-12-20T10:53:07;-0.22;70.10
74376;HTU21D;62812;55.188;61.302;2023-12-20T10:55:34;-0.16;70.13
74376;HTU21D;62812;55.188;61.302;2023-12-20T10:58:04;-0.01;69.20
74376;HTU21D;62812;55.188;61.302;2023-12-20T11:00:36;0.05;69.26
74376;HTU21D;62812;55.188;61.302;2023-12-20T11:03:14;0.05;69.30
74376;HTU21D;62812;55.188;61.302;2023-12-20T11:05:50;0.07;69.00
74376;HTU21D;62812;55.188;61.302;2023-12-20T11:08:28;0.14;69.00
74376;HTU21D;62812;55.188;61.302;2023-12-20T11:11:02;0.16;68.59
74376;HTU21D;62812;55.188;61.302;2023-12-20T11:13:37;0.08;68.93
74376;HTU21D;62812;55.188;61.302;2023-12-20T11:16:14;0.02;69.34
74376;HTU21D;62812;55.188;61.302;2023-12-20T11:18:42;0.07;68.89
74376;HTU21D;62812;55.188;61.302;2023-12-20T11:21:12;0.13;68.62
74376;HTU21D;62812;55.188;61.302;2023-12-20T11:23:42;0.18;68.32
74376;HTU21D;62812;55.188;61.302;2023-12-20T11:26:09;0.18;68.50
74376;HTU21D;62812;55.188;61.302;2023-12-20T11:28:39;0.15;68.48
74376;HTU21D;62812;55.188;61.302;2023-12-20T11:31:14;0.05;68.83
74376;HTU21D;62812;55.188;61.302;2023-12-20T11:33:42;0.10;68.59
74376;HTU21D;62812;55.188;61.302;2023-12-20T11:36:13;0.13;68.52
74376;HTU21D;62812;55.188;61.302;2023-12-20T11:38:59;0.13;68.69
74376;HTU21D;62812;55.188;61.302;2023-12-20T11:41:56;0.05;68.84
74376;HTU21D;62812;55.188;61.302;2023-12-20T11:44:33;-0.00;69.10
74376;HTU21D;62812;55.188;61.302;2023-12-20T11:47:02;0.12;68.63
74376;HTU21D;62812;55.188;61.302;2023-12-20T11:49:30;0.08;68.63
74376;HTU21D;62812;55.188;61.302;2023-12-20T11:51:58;-0.00;68.99
74376;HTU21D;62812;55.188;61.302;2023-12-20T11:54:29;0.07;69.05
74376;HTU21D;62812;55.188;61.302;2023-12-20T11:56:58;0.03;68.91
74376;HTU21D;62812;55.188;61.302;2023-12-20T11:59:25;0.03;68.95
74376;HTU21D;62812;55.188;61.302;2023-12-20T12:01:53;0.12;68.60
74376;HTU21D;62812;55.188;61.302;2023-12-20T12:04:30;0.10;68.68
74376;HTU21D;62812;55.188;61.302;2023-12-20T12:06:59;0.25;68.01
74376;HTU21D;62812;55.188;61.302;2023-12-20T12:09:30;0.20;68.37
74376;HTU21D;62812;55.188;61.302;2023-12-20T12:12:01;0.15;68.80
74376;HTU21D;62812;55.188;61.302;2023-12-20T12:14:31;0.14;68.68
74376;HTU21D;62812;55.188;61.302;2023-12-20T12:17:10;0.24;68.31
74376;HTU21D;62812;55.188;61.302;2023-12-20T12:20:03;0.28;68.21
74376;HTU21D;62812;55.188;61.302;2023-12-20T12:22:33;0.28;68.36
74376;HTU21D;62812;55.188;61.302;2023-12-20T12:25:09;0.35;68.13
74376;HTU21D;62812;55.188;61.302;2023-12-20T12:27:41;0.34;68.23
74376;HTU21D;62812;55.188;61.302;2023-12-20T12:30:09;0.30;68.25
74376;HTU21D;62812;55.188;61.302;2023-12-20T12:32:47;0.19;68.65
74376;HTU21D;62812;55.188;61.302;2023-12-20T12:35:23;0.07;69.15
74376;HTU21D;62812;55.188;61.302;2023-12-20T12:37:52;0.07;69.35
74376;HTU21D;62812;55.188;61.302;2023-12-20T12:40:42;0.06;69.26
74376;HTU21D;62812;55.188;61.302;2023-12-20T12:43:23;0.06;69.48
74376;HTU21D;62812;55.188;61.302;2023-12-20T12:45:50;0.07;69.41
74376;HTU21D;62812;55.188;61.302;2023-12-20T12:48:18;0.08;69.45
74376;HTU21D;62812;55.188;61.302;2023-12-20T12:50:47;0.12;69.08
74376;HTU21D;62812;55.188;61.302;2023-12-20T12:53:18;0.15;68.94
74376;HTU21D;62812;55.188;61.302;2023-12-20T12:55:48;0.18;68.85
74376;HTU21D;62812;55.188;61.302;2023-12-20T12:58:22;0.19;68.89
74376;HTU21D;62812;55.188;61.302;2023-12-20T13:00:57;0.14;69.37
74376;HTU21D;62812;55.188;61.302;2023-12-20T13:03:26;0.22;69.34
74376;HTU21D;62812;55.188;61.302;2023-12-20T13:05:54;0.32;68.51
74376;HTU21D;62812;55.188;61.302;2023-12-20T13:08:21;0.33;68.97
74376;HTU21D;62812;55.188;61.302;2023-12-20T13:10:49;0.32;68.87
74376;HTU21D;62812;55.188;61.302;2023-12-20T13:13:16;0.21;69.49
74376;HTU21D;62812;55.188;61.302;2023-12-20T13:15:43;0.13;69.84
74376;HTU21D;62812;55.188;61.302;2023-12-20T13:18:18;0.08;69.84
74376;HTU21D;62812;55.188;61.302;2023-12-20T13:20:49;0.05;70.13
74376;HTU21D;62812;55.188;61.302;2023-12-20T13:23:19;0.06;69.95
74376;HTU21D;62812;55.188;61.302;2023-12-20T13:25:49;0.09;70.11
74376;HTU21D;62812;55.188;61.302;2023-12-20T13:28:15;0.08;69.68
74376;HTU21D;62812;55.188;61.302;2023-12-20T13:30:42;0.05;70.14
74376;HTU21D;62812;55.188;61.302;2023-12-20T13:33:11;0.04;70.23
74376;HTU21D;62812;55.188;61.302;2023-12-20T13:35:39;0.05;70.33
74376;HTU21D;62812;55.188;61.302;2023-12-20T13:38:30;0.02;70.43
74376;HTU21D;62812;55.188;61.302;2023-12-20T13:41:02;-0.02;70.52
74376;HTU21D;62812;55.188;61.302;2023-12-20T13:43:31;0.04;70.71
74376;HTU21D;62812;55.188;61.302;2023-12-20T13:45:59;0.07;70.82
74376;HTU21D;62812;55.188;61.302;2023-12-20T13:48:26;0.12;70.47
74376;HTU21D;62812;55.188;61.302;2023-12-20T13:50:53;0.14;70.23
74376;HTU21D;62812;55.188;61.302;2023-12-20T13:53:21;0.19;70.22
74376;HTU21D;62812;55.188;61.302;2023-12-20T13:55:51;0.18;70.31
74376;HTU21D;62812;55.188;61.302;2023-12-20T13:58:18;0.18;70.32
74376;HTU21D;62812;55.188;61.302;2023-12-20T14:00:44;0.16;70.48
74376;HTU21D;62812;55.188;61.302;2023-12-20T14:03:16;0.20;70.37
74376;HTU21D;62812;55.188;61.302;2023-12-20T14:05:42;0.20;70.55
74376;HTU21D;62812;55.188;61.302;2023-12-20T14:08:09;0.19;70.56
74376;HTU21D;62812;55.188;61.302;2023-12-20T14:10:37;0.12;70.94
74376;HTU21D;62812;55.188;61.302;2023-12-20T14:13:08;0.12;70.93
74376;HTU21D;62812;55.188;61.302;2023-12-20T14:15:35;0.04;71.03
74376;HTU21D;62812;55.188;61.302;2023-12-20T14:18:05;0.09;70.45
74376;HTU21D;62812;55.188;61.302;2023-12-20T14:20:39;0.10;71.00
74376;HTU21D;62812;55.188;61.302;2023-12-20T14:23:07;0.04;71.32
74376;HTU21D;62812;55.188;61.302;2023-12-20T14:25:35;0.02;71.39
74376;HTU21D;62812;55.188;61.302;2023-12-20T14:28:03;0.04;70.75
74376;HTU21D;62812;55.188;61.302;2023-12-20T14:30:32;0.02;71.03
74376;HTU21D;62812;55.188;61.302;2023-12-20T14:33:00;0.07;71.09
74376;HTU21D;62812;55.188;61.302;2023-12-20T14:35:27;0.07;71.06
74376;HTU21D;62812;55.188;61.302;2023-12-20T14:38:02;0.05;71.34
74376;HTU21D;62812;55.188;61.302;2023-12-20T14:41:12;0.06;71.24
74376;HTU21D;62812;55.188;61.302;2023-12-20T14:43:43;0.05;71.19
74376;HTU21D;62812;55.188;61.302;2023-12-20T14:46:25;0.08;71.12
74376;HTU21D;62812;55.188;61.302;2023-12-20T14:48:51;0.10;70.92
74376;HTU21D;62812;55.188;61.302;2023-12-20T14:51:18;0.10;70.95
74376;HTU21D;62812;55.188;61.302;2023-12-20T14:53:48;0.12;70.91
74376;HTU21D;62812;55.188;61.302;2023-12-20T14:56:18;0.13;71.13
74376;HTU21D;62812;55.188;61.302;2023-12-20T14:58:47;0.12;70.92
74376;HTU21D;62812;55.188;61.302;2023-12-20T15:01:14;0.05;71.23
74376;HTU21D;62812;55.188;61.302;2023-12-20T15:03:43;0.02;71.45
74376;HTU21D;62812;55.188;61.302;2023-12-20T15:06:10;-0.00;71.48
74376;HTU21D;62812;55.188;61.302;2023-12-20T15:08:38;-0.00;71.69
74376;HTU21D;62812;55.188;61.302;2023-12-20T15:11:05;0.02;71.37
74376;HTU21D;62812;55.188;61.302;2023-12-20T15:16:51;-0.01;71.71
74376;HTU21D;62812;55.188;61.302;2023-12-20T15:19:23;-0.03;71.67
74376;HTU21D;62812;55.188;61.302;2023-12-20T15:21:50;-0.02;71.69
74376;HTU21D;62812;55.188;61.302;2023-12-20T15:24:19;0.03;71.45
74376;HTU21D;62812;55.188;61.302;2023-12-20T15:26:47;0.04;71.53
74376;HTU21D;62812;55.188;61.302;2023-12-20T15:29:15;0.06;71.04
74376;HTU21D;62812;55.188;61.302;2023-12-20T15:31:47;0.07;71.35
74376;HTU21D;62812;55.188;61.302;2023-12-20T15:34:47;0.07;71.24
74376;HTU21D;62812;55.188;61.302;2023-12-20T15:37:18;0.08;71.35
74376;HTU21D;62812;55.188;61.302;2023-12-20T15:39:46;0.10;71.14
74376;HTU21D;62812;55.188;61.302;2023-12-20T15:42:15;0.13;71.09